Time;durP1;ratioP1;P1;durP2;ratioP2;P2;SDS_P1;SDS_P2;PMS_P1;PMS_P2;Temp;Humidity;BMP_temperature;BMP_pressure;BME280_temperature;BME280_humidity;BME280_pressure;Samples;Min_cycle;Max_cycle;Signal;HPM_P1;HPM_P2
2021/10/10 00:00:29;;;;;;;12.00;8.63;;;;;;;;;;5012985;28;20558;-87
2021/10/10 00:03:14;;;;;;;12.73;9.37;;;;;;;;;;5012965;28;20537;-87
2021/10/10 00:05:59;;;;;;;12.37;9.40;;;;;;;;;;5012993;28;20271;-88
2021/10/10 00:08:44;;;;;;;10.43;9.07;;;;;;;;;;5012593;28;20762;-87
2021/10/10 00:11:30;;;;;;;13.70;9.07;;;;;;;;;;5013068;28;20192;-87
2021/10/10 00:14:15;;;;;;;10.23;9.10;;;;;;;;;;5012566;28;20227;-88
2021/10/10 00:17:00;;;;;;;12.77;9.80;;;;;;;;;;5012736;28;20818;-87
2021/10/10 00:19:45;;;;;;;15.57;9.80;;;;;;;;;;5012657;28;20184;-87
2021/10/10 00:22:30;;;;;;;11.40;9.20;;;;;;;;;;5012751;28;20545;-87
2021/10/10 00:25:15;;;;;;;10.17;9.17;;;;;;;;;;5012543;28;20710;-87
2021/10/10 00:28:01;;;;;;;14.20;9.43;;;;;;;;;;5012636;28;20553;-87
2021/10/10 00:30:47;;;;;;;10.37;8.50;;;;;;;;;;5012374;28;20211;-87
2021/10/10 00:33:32;;;;;;;10.33;9.17;;;;;;;;;;5012175;28;20195;-87
2021/10/10 00:36:17;;;;;;;17.97;9.77;;;;;;;;;;5012492;28;20196;-88
2021/10/10 00:39:02;;;;;;;13.50;9.10;;;;;;;;;;5011844;28;20258;-87
2021/10/10 00:41:47;;;;;;;11.50;9.47;;;;;;;;;;5012120;28;20263;-87
2021/10/10 00:44:33;;;;;;;16.83;9.23;;;;;;;;;;5012346;28;20188;-87
2021/10/10 00:47:18;;;;;;;11.43;9.10;;;;;;;;;;5012148;28;20193;-87
2021/10/10 00:50:03;;;;;;;13.70;9.23;;;;;;;;;;5011896;28;20344;-87
2021/10/10 00:52:50;;;;;;;11.50;8.80;;;;;;;;;;5012096;28;20309;-88
2021/10/10 00:55:35;;;;;;;10.50;9.43;;;;;;;;;;5011748;28;20232;-87
2021/10/10 00:58:22;;;;;;;11.93;9.33;;;;;;;;;;5011996;28;20192;-87
2021/10/10 01:01:08;;;;;;;14.53;9.17;;;;;;;;;;5012076;28;20200;-87
2021/10/10 01:03:53;;;;;;;11.27;9.17;;;;;;;;;;5011976;28;20183;-87
2021/10/10 01:06:38;;;;;;;12.50;9.00;;;;;;;;;;5012281;28;20543;-87
2021/10/10 01:09:23;;;;;;;10.57;9.03;;;;;;;;;;5011913;28;20236;-87
2021/10/10 01:12:08;;;;;;;11.13;9.37;;;;;;;;;;5011977;28;20188;-87
2021/10/10 01:14:53;;;;;;;10.73;9.60;;;;;;;;;;5011807;28;20224;-87
2021/10/10 01:17:39;;;;;;;12.40;9.43;;;;;;;;;;5012000;28;20191;-87
2021/10/10 01:20:27;;;;;;;14.33;9.63;;;;;;;;;;5011866;28;20324;-87
2021/10/10 01:23:13;;;;;;;14.43;9.70;;;;;;;;;;5012068;28;20656;-87
2021/10/10 01:25:59;;;;;;;14.77;9.63;;;;;;;;;;5011557;28;20227;-87
2021/10/10 01:28:44;;;;;;;10.50;9.40;;;;;;;;;;5011617;28;20191;-87
2021/10/10 01:31:29;;;;;;;13.07;9.53;;;;;;;;;;5011826;28;20208;-86
2021/10/10 01:34:14;;;;;;;12.33;9.67;;;;;;;;;;5011608;28;20208;-87
2021/10/10 01:37:00;;;;;;;12.50;9.83;;;;;;;;;;5011718;28;20283;-88
2021/10/10 01:39:46;;;;;;;11.13;9.70;;;;;;;;;;5011575;28;20270;-87
2021/10/10 01:42:31;;;;;;;12.70;9.70;;;;;;;;;;5011899;28;20203;-86
2021/10/10 01:45:17;;;;;;;14.03;10.23;;;;;;;;;;5011704;28;20691;-87
2021/10/10 01:48:02;;;;;;;13.07;10.30;;;;;;;;;;5011738;28;20653;-87
2021/10/10 01:50:47;;;;;;;15.07;10.53;;;;;;;;;;5011758;28;20227;-87
2021/10/10 01:53:32;;;;;;;10.83;9.53;;;;;;;;;;5015215;28;20553;-86
2021/10/10 01:56:18;;;;;;;12.77;10.33;;;;;;;;;;5015170;28;20308;-87
2021/10/10 01:59:04;;;;;;;12.10;9.80;;;;;;;;;;5015343;28;20188;-87
2021/10/10 02:01:49;;;;;;;13.03;9.97;;;;;;;;;;5015223;28;20189;-87
2021/10/10 02:04:33;;;;;;;12.37;9.57;;;;;;;;;;5015025;28;20538;-87
2021/10/10 02:07:18;;;;;;;15.20;9.90;;;;;;;;;;5015250;28;20552;-87
2021/10/10 02:10:04;;;;;;;13.40;10.63;;;;;;;;;;5014894;28;20239;-87
2021/10/10 02:12:50;;;;;;;15.60;10.23;;;;;;;;;;5015169;28;20340;-87
2021/10/10 02:15:35;;;;;;;14.80;10.50;;;;;;;;;;5014802;28;20204;-87
2021/10/10 02:18:20;;;;;;;10.90;9.80;;;;;;;;;;5014914;28;20191;-87
2021/10/10 02:21:05;;;;;;;11.30;10.10;;;;;;;;;;5015021;28;20193;-87
2021/10/10 02:23:50;;;;;;;13.90;10.47;;;;;;;;;;5014974;28;20200;-88
2021/10/10 02:26:37;;;;;;;11.00;9.80;;;;;;;;;;5014927;28;20735;-87
2021/10/10 02:29:25;;;;;;;11.60;9.83;;;;;;;;;;5014600;28;20707;-87
2021/10/10 02:32:10;;;;;;;11.17;8.90;;;;;;;;;;5014811;28;20195;-87
2021/10/10 02:34:55;;;;;;;11.63;9.10;;;;;;;;;;5014587;28;20223;-87
2021/10/10 02:37:40;;;;;;;12.87;10.67;;;;;;;;;;5014850;28;20192;-87
2021/10/10 02:40:25;;;;;;;13.20;10.30;;;;;;;;;;5015025;28;20270;-87
2021/10/10 02:43:10;;;;;;;11.37;10.17;;;;;;;;;;5014657;28;20360;-87
2021/10/10 02:45:56;;;;;;;12.77;10.67;;;;;;;;;;5014455;28;20188;-88
2021/10/10 02:48:41;;;;;;;18.70;10.97;;;;;;;;;;5014655;28;20188;-87
2021/10/10 02:51:26;;;;;;;11.70;9.80;;;;;;;;;;5014670;28;20810;-87
2021/10/10 02:54:11;;;;;;;11.93;10.03;;;;;;;;;;5014458;28;20292;-87
2021/10/10 02:56:56;;;;;;;15.17;10.50;;;;;;;;;;5014482;28;20204;-86
2021/10/10 02:59:41;;;;;;;11.60;9.53;;;;;;;;;;5014189;28;20599;-87
2021/10/10 03:02:27;;;;;;;11.67;9.87;;;;;;;;;;5014017;28;20195;-87
2021/10/10 03:05:12;;;;;;;13.13;10.27;;;;;;;;;;5014351;28;20188;-87
2021/10/10 03:07:57;;;;;;;15.97;9.20;;;;;;;;;;5013981;28;20259;-87
2021/10/10 03:10:42;;;;;;;11.77;9.47;;;;;;;;;;5013882;28;20185;-87
2021/10/10 03:13:27;;;;;;;12.47;9.83;;;;;;;;;;5014035;28;20185;-87
2021/10/10 03:16:12;;;;;;;10.80;9.10;;;;;;;;;;5013864;28;20252;-87
2021/10/10 03:18:58;;;;;;;12.07;9.27;;;;;;;;;;5013985;28;20308;-87
2021/10/10 03:21:43;;;;;;;10.63;9.33;;;;;;;;;;5013782;28;20208;-88
2021/10/10 03:24:31;;;;;;;10.23;9.17;;;;;;;;;;5013799;28;20200;-87
2021/10/10 03:27:16;;;;;;;10.70;9.57;;;;;;;;;;5014118;28;20181;-86
2021/10/10 03:30:01;;;;;;;13.07;9.60;;;;;;;;;;5013749;28;20188;-87
2021/10/10 03:32:46;;;;;;;13.27;9.43;;;;;;;;;;5013715;28;20770;-87
2021/10/10 03:35:33;;;;;;;12.27;9.73;;;;;;;;;;5013383;28;20294;-86
2021/10/10 03:38:18;;;;;;;11.27;9.07;;;;;;;;;;5013815;28;20749;-87
2021/10/10 03:41:04;;;;;;;13.37;10.07;;;;;;;;;;5013242;28;20296;-87
2021/10/10 03:43:49;;;;;;;12.43;9.80;;;;;;;;;;5013569;28;20222;-88
2021/10/10 03:46:34;;;;;;;11.87;8.97;;;;;;;;;;5013143;28;20561;-87
2021/10/10 03:49:19;;;;;;;12.03;9.37;;;;;;;;;;5013555;28;20636;-88
2021/10/10 03:52:06;;;;;;;12.07;8.97;;;;;;;;;;5013290;28;20223;-87
2021/10/10 03:57:56;;;;;;;10.67;9.40;;;;;;;;;;5013826;28;20556;-87
2021/10/10 04:00:41;;;;;;;15.70;8.77;;;;;;;;;;5012986;28;20232;-87
2021/10/10 04:03:27;;;;;;;13.37;8.90;;;;;;;;;;5013062;28;20189;-88
2021/10/10 04:06:11;;;;;;;11.37;9.50;;;;;;;;;;5012998;28;20655;-87
2021/10/10 04:08:58;;;;;;;11.23;9.13;;;;;;;;;;5012898;28;20239;-87
2021/10/10 04:11:43;;;;;;;12.10;9.90;;;;;;;;;;5012837;28;20665;-87
2021/10/10 04:14:28;;;;;;;12.60;10.13;;;;;;;;;;5012276;28;20235;-87
2021/10/10 04:17:13;;;;;;;12.23;9.90;;;;;;;;;;5012900;28;20779;-87
2021/10/10 04:19:58;;;;;;;12.80;9.83;;;;;;;;;;5012652;28;20200;-87
2021/10/10 04:22:44;;;;;;;10.97;9.10;;;;;;;;;;5012737;28;20296;-87
2021/10/10 04:25:30;;;;;;;12.10;9.37;;;;;;;;;;5012671;28;20180;-87
2021/10/10 04:28:15;;;;;;;11.70;9.33;;;;;;;;;;5012592;28;20188;-88
2021/10/10 04:31:00;;;;;;;11.57;9.23;;;;;;;;;;5012427;28;20247;-86
2021/10/10 04:33:45;;;;;;;10.97;8.90;;;;;;;;;;5012420;28;20195;-86
2021/10/10 04:36:30;;;;;;;10.53;8.77;;;;;;;;;;5012379;28;20688;-86
2021/10/10 04:39:15;;;;;;;14.40;8.80;;;;;;;;;;5012630;28;20193;-87
2021/10/10 04:42:02;;;;;;;12.40;9.00;;;;;;;;;;5012522;28;20275;-87
2021/10/10 04:44:47;;;;;;;12.07;9.03;;;;;;;;;;5012720;28;20220;-87
2021/10/10 04:47:32;;;;;;;14.63;9.77;;;;;;;;;;5012390;28;20184;-88
2021/10/10 04:50:17;;;;;;;10.97;9.40;;;;;;;;;;5012586;28;20224;-88
2021/10/10 04:53:02;;;;;;;14.97;9.90;;;;;;;;;;5012478;28;20196;-88
2021/10/10 04:55:46;;;;;;;10.10;9.10;;;;;;;;;;5012224;28;20295;-88
2021/10/10 04:58:33;;;;;;;11.83;9.83;;;;;;;;;;5012188;28;20706;-85
2021/10/10 05:01:18;;;;;;;11.10;9.67;;;;;;;;;;5012255;28;20188;-86
2021/10/10 05:04:03;;;;;;;9.90;8.83;;;;;;;;;;5012295;28;20191;-87
2021/10/10 05:06:48;;;;;;;10.70;9.10;;;;;;;;;;5012028;28;20676;-87
2021/10/10 05:09:33;;;;;;;10.40;8.40;;;;;;;;;;5012076;28;20715;-87
2021/10/10 05:12:18;;;;;;;11.10;9.23;;;;;;;;;;5012074;28;20661;-86
2021/10/10 05:15:05;;;;;;;12.03;8.93;;;;;;;;;;5012409;28;20188;-86
2021/10/10 05:17:49;;;;;;;15.67;8.73;;;;;;;;;;5012370;28;20189;-87
2021/10/10 05:20:34;;;;;;;11.67;8.97;;;;;;;;;;5011905;28;20192;-87
2021/10/10 05:23:19;;;;;;;13.80;9.20;;;;;;;;;;5012057;28;20193;-86
2021/10/10 05:26:05;;;;;;;11.73;9.30;;;;;;;;;;5014602;28;20235;-86
2021/10/10 05:28:50;;;;;;;11.77;10.47;;;;;;;;;;5015884;28;20675;-87
2021/10/10 05:31:36;;;;;;;10.87;9.43;;;;;;;;;;5015940;28;20327;-86
2021/10/10 05:34:21;;;;;;;19.07;9.83;;;;;;;;;;5015951;28;20204;-86
2021/10/10 05:37:06;;;;;;;11.20;9.60;;;;;;;;;;5015645;28;20684;-86
2021/10/10 05:39:51;;;;;;;11.93;9.50;;;;;;;;;;5015978;28;20776;-90
2021/10/10 05:42:38;;;;;;;12.10;10.53;;;;;;;;;;5016125;28;20188;-88
2021/10/10 05:45:23;;;;;;;13.63;12.13;;;;;;;;;;5016222;28;20279;-88
2021/10/10 05:48:09;;;;;;;17.40;14.20;;;;;;;;;;5015818;28;20236;-87
2021/10/10 05:50:54;;;;;;;22.67;15.90;;;;;;;;;;5015692;28;20228;-88
2021/10/10 05:53:40;;;;;;;20.93;13.73;;;;;;;;;;5015688;28;20546;-88
2021/10/10 05:56:25;;;;;;;23.00;13.50;;;;;;;;;;5015973;28;20684;-87
2021/10/10 05:59:14;;;;;;;16.43;13.53;;;;;;;;;;5016294;28;20308;-93
2021/10/10 06:01:59;;;;;;;14.80;12.30;;;;;;;;;;5016313;28;20188;-90
2021/10/10 06:04:45;;;;;;;12.83;11.53;;;;;;;;;;5015776;28;20189;-89
2021/10/10 06:07:30;;;;;;;15.77;11.17;;;;;;;;;;5015545;28;20181;-89
2021/10/10 06:10:15;;;;;;;13.43;11.07;;;;;;;;;;5015864;28;20348;-89
2021/10/10 06:13:01;;;;;;;14.03;11.33;;;;;;;;;;5015701;28;20192;-91
2021/10/10 06:15:49;;;;;;;15.07;11.90;;;;;;;;;;5015757;28;20704;-91
2021/10/10 06:18:34;;;;;;;20.77;14.77;;;;;;;;;;5015835;28;20261;-93
2021/10/10 06:21:20;;;;;;;20.90;15.47;;;;;;;;;;5016058;28;20193;-89
2021/10/10 06:24:05;;;;;;;18.20;14.13;;;;;;;;;;5016045;28;20339;-89
2021/10/10 06:26:50;;;;;;;16.50;12.97;;;;;;;;;;5015426;28;20192;-90
2021/10/10 06:29:35;;;;;;;15.37;10.50;;;;;;;;;;5015560;28;20189;-91
2021/10/10 06:32:20;;;;;;;14.63;10.73;;;;;;;;;;5015710;28;20192;-92
2021/10/10 06:35:05;;;;;;;13.53;10.80;;;;;;;;;;5015489;28;20692;-90
2021/10/10 06:37:52;;;;;;;13.97;10.97;;;;;;;;;;5014380;28;20592;-84
2021/10/10 06:40:38;;;;;;;13.00;11.00;;;;;;;;;;5015320;28;20304;-90
2021/10/10 06:43:23;;;;;;;13.87;10.77;;;;;;;;;;5015224;28;20270;-90
2021/10/10 06:46:08;;;;;;;12.83;11.23;;;;;;;;;;5015631;28;20660;-90
2021/10/10 06:48:53;;;;;;;14.40;11.40;;;;;;;;;;5015540;28;20192;-95
2021/10/10 06:51:38;;;;;;;15.23;12.17;;;;;;;;;;5015456;28;20634;-92
2021/10/10 06:54:25;;;;;;;16.07;11.53;;;;;;;;;;5015113;28;20230;-88
2021/10/10 06:57:10;;;;;;;17.23;11.10;;;;;;;;;;5015070;28;20335;-91
2021/10/10 06:59:58;;;;;;;20.10;11.60;;;;;;;;;;5015203;28;20200;-92
2021/10/10 07:02:43;;;;;;;17.53;11.90;;;;;;;;;;5015669;28;20591;-92
2021/10/10 07:05:28;;;;;;;14.30;11.60;;;;;;;;;;5016032;28;20191;-92
2021/10/10 07:08:13;;;;;;;13.33;11.30;;;;;;;;;;5015436;28;20315;-94
2021/10/10 07:10:59;;;;;;;13.80;11.87;;;;;;;;;;5015748;28;20540;-92
2021/10/10 07:13:45;;;;;;;17.00;11.73;;;;;;;;;;5015366;28;20200;-92
2021/10/10 07:16:30;;;;;;;15.07;11.60;;;;;;;;;;5014855;28;20191;-92
2021/10/10 07:19:21;;;;;;;15.00;12.20;;;;;;;;;;5014340;28;20184;-93
2021/10/10 07:22:14;;;;;;;14.90;11.87;;;;;;;;;;5014378;28;20316;-93
2021/10/10 07:25:05;;;;;;;18.47;13.60;;;;;;;;;;5014281;28;20196;-92
2021/10/10 07:27:52;;;;;;;17.03;12.37;;;;;;;;;;5013857;28;20193;-91
2021/10/10 07:30:37;;;;;;;33.87;19.00;;;;;;;;;;5014056;28;20192;-92
2021/10/10 07:33:23;;;;;;;24.87;16.70;;;;;;;;;;5015657;28;20196;-90
2021/10/10 07:36:08;;;;;;;13.67;11.73;;;;;;;;;;5013806;28;20669;-91
2021/10/10 07:38:53;;;;;;;15.63;11.40;;;;;;;;;;5013462;28;20188;-93
2021/10/10 07:41:40;;;;;;;14.17;10.73;;;;;;;;;;5014032;28;20261;-89
2021/10/10 07:44:30;;;;;;;16.60;12.47;;;;;;;;;;5014152;28;20185;-93
2021/10/10 07:47:30;;;;;;;16.83;11.67;;;;;;;;;;5013609;28;20191;-92
2021/10/10 07:50:16;;;;;;;15.03;11.17;;;;;;;;;;5013845;28;20319;-92
2021/10/10 07:53:02;;;;;;;14.80;11.77;;;;;;;;;;5014027;28;20196;-93
2021/10/10 07:55:47;;;;;;;13.23;10.77;;;;;;;;;;5016930;28;20211;-91
2021/10/10 07:58:32;;;;;;;16.30;10.93;;;;;;;;;;5033484;28;20224;-92
2021/10/10 08:01:20;;;;;;;18.00;11.23;;;;;;;;;;5029835;28;20250;-92
2021/10/10 08:04:05;;;;;;;16.83;11.07;;;;;;;;;;5019791;28;20211;-92
2021/10/10 08:06:50;;;;;;;13.43;10.50;;;;;;;;;;5014597;28;20196;-93
2021/10/10 08:09:35;;;;;;;12.57;10.80;;;;;;;;;;5013190;28;20238;-90
2021/10/10 08:12:20;;;;;;;15.73;10.57;;;;;;;;;;5013271;28;20196;-91
2021/10/10 08:15:06;;;;;;;16.07;10.67;;;;;;;;;;5012995;28;20199;-93
2021/10/10 08:17:53;;;;;;;13.70;10.23;;;;;;;;;;5012617;28;20231;-87
2021/10/10 08:20:38;;;;;;;12.50;9.87;;;;;;;;;;5012499;28;20243;-86
2021/10/10 08:23:23;;;;;;;13.37;10.50;;;;;;;;;;5012548;28;20197;-88
2021/10/10 08:26:08;;;;;;;14.00;10.63;;;;;;;;;;5012850;28;20728;-85
2021/10/10 08:28:53;;;;;;;16.67;11.10;;;;;;;;;;5012062;28;20184;-84
2021/10/10 08:31:38;;;;;;;15.57;10.93;;;;;;;;;;5012124;28;20188;-88
2021/10/10 08:34:25;;;;;;;12.67;10.37;;;;;;;;;;5012463;28;20203;-84
2021/10/10 08:37:10;;;;;;;13.13;10.67;;;;;;;;;;5011812;28;20719;-89
2021/10/10 08:39:55;;;;;;;16.70;10.97;;;;;;;;;;5012403;28;20244;-88
2021/10/10 08:42:42;;;;;;;14.80;11.47;;;;;;;;;;5011776;28;20200;-87
2021/10/10 08:45:30;;;;;;;15.07;10.73;;;;;;;;;;5012072;28;20193;-88
2021/10/10 08:48:17;;;;;;;18.70;11.47;;;;;;;;;;5011676;28;20675;-88
2021/10/10 08:51:04;;;;;;;13.10;11.00;;;;;;;;;;5012080;28;20223;-86
2021/10/10 08:53:49;;;;;;;17.33;10.20;;;;;;;;;;5012180;28;20187;-87
2021/10/10 08:56:34;;;;;;;16.30;11.17;;;;;;;;;;5011923;28;20208;-87
2021/10/10 08:59:21;;;;;;;17.73;10.87;;;;;;;;;;5026872;28;20206;-85
2021/10/10 09:02:08;;;;;;;13.70;11.33;;;;;;;;;;5030894;28;20643;-85
2021/10/10 09:04:53;;;;;;;12.27;10.17;;;;;;;;;;5014577;28;20664;-84
2021/10/10 09:07:40;;;;;;;13.33;10.80;;;;;;;;;;5011539;28;20288;-85
2021/10/10 09:10:27;;;;;;;17.87;10.93;;;;;;;;;;5012185;28;20212;-85
2021/10/10 09:13:14;;;;;;;15.87;10.40;;;;;;;;;;5011112;28;20556;-84
2021/10/10 09:15:59;;;;;;;16.83;10.90;;;;;;;;;;5011358;28;20618;-85
2021/10/10 09:18:45;;;;;;;17.17;10.83;;;;;;;;;;5010882;28;20604;-85
2021/10/10 09:21:30;;;;;;;13.87;10.63;;;;;;;;;;5011436;28;20189;-83
2021/10/10 09:24:26;;;;;;;15.57;10.43;;;;;;;;;;5011521;28;20585;-85
2021/10/10 09:27:12;;;;;;;14.87;10.60;;;;;;;;;;5011271;28;20200;-85
2021/10/10 09:29:59;;;;;;;17.80;11.90;;;;;;;;;;5011227;28;20728;-84
2021/10/10 09:32:45;;;;;;;15.03;10.80;;;;;;;;;;5011086;28;20259;-87
2021/10/10 09:35:31;;;;;;;16.90;10.43;;;;;;;;;;5011085;28;20180;-85
2021/10/10 09:38:21;;;;;;;15.53;11.10;;;;;;;;;;5020535;28;20695;-86
2021/10/10 09:41:16;;;;;;;14.43;10.70;;;;;;;;;;5031607;28;20196;-85
2021/10/10 09:44:06;;;;;;;13.73;10.73;;;;;;;;;;5030829;28;20194;-85
2021/10/10 09:46:51;;;;;;;13.13;10.70;;;;;;;;;;5030798;28;20192;-87
2021/10/10 09:49:36;;;;;;;16.70;10.10;;;;;;;;;;5030835;28;20264;-85
2021/10/10 09:52:21;;;;;;;15.43;11.20;;;;;;;;;;5030734;28;20291;-86
2021/10/10 09:55:06;;;;;;;13.17;10.40;;;;;;;;;;5031398;28;20187;-86
2021/10/10 09:57:54;;;;;;;17.10;11.27;;;;;;;;;;5032568;28;20269;-91
2021/10/10 10:00:39;;;;;;;97.47;65.80;;;;;;;;;;5023917;28;20230;-90
2021/10/10 10:03:24;;;;;;;17.20;13.70;;;;;;;;;;5031281;28;20188;-87
2021/10/10 10:06:09;;;;;;;16.80;12.87;;;;;;;;;;5029742;28;20191;-87
2021/10/10 10:08:55;;;;;;;25.70;15.83;;;;;;;;;;5011108;28;20275;-82
2021/10/10 10:11:40;;;;;;;21.60;14.07;;;;;;;;;;5011460;28;20196;-90
2021/10/10 10:14:27;;;;;;;16.63;12.20;;;;;;;;;;5014922;28;20196;-88
2021/10/10 10:17:14;;;;;;;14.17;11.10;;;;;;;;;;5026543;28;20274;-90
2021/10/10 10:20:01;;;;;;;11.90;10.20;;;;;;;;;;5035528;28;20322;-89
2021/10/10 10:22:49;;;;;;;17.83;11.40;;;;;;;;;;5031574;28;20203;-87
2021/10/10 10:25:34;;;;;;;13.43;10.43;;;;;;;;;;5035505;28;20275;-95
2021/10/10 10:28:22;;;;;;;13.03;10.23;;;;;;;;;;5036227;28;20187;-88
2021/10/10 10:31:08;;;;;;;15.53;9.87;;;;;;;;;;5035228;28;20195;-90
2021/10/10 10:34:14;;;;;;;13.13;10.27;;;;;;;;;;5038103;28;20552;-85
2021/10/10 10:37:00;;;;;;;14.10;9.80;;;;;;;;;;5016125;28;20192;-92
2021/10/10 10:39:47;;;;;;;14.33;10.83;;;;;;;;;;5015525;28;20687;-89
2021/10/10 10:42:36;;;;;;;12.80;10.50;;;;;;;;;;5015278;28;20189;-83
2021/10/10 10:45:22;;;;;;;14.57;10.10;;;;;;;;;;5016425;28;20667;-88
2021/10/10 10:48:10;;;;;;;18.00;10.73;;;;;;;;;;5017345;28;20562;-93
2021/10/10 10:51:14;;;;;;;13.97;9.63;;;;;;;;;;5035450;28;20226;-92
2021/10/10 10:54:14;;;;;;;17.67;10.33;;;;;;;;;;5026857;28;20243;-93
2021/10/10 10:56:59;;;;;;;13.27;9.00;;;;;;;;;;5017522;28;20292;-92
2021/10/10 10:59:58;;;;;;;14.00;8.83;;;;;;;;;;5037199;28;20671;-95
2021/10/10 11:02:48;;;;;;;13.97;9.87;;;;;;;;;;5034948;28;20188;-88
2021/10/10 11:05:36;;;;;;;13.20;10.23;;;;;;;;;;5024273;28;20312;-86
2021/10/10 11:08:38;;;;;;;12.53;10.13;;;;;;;;;;5015102;28;20275;-86
2021/10/10 11:11:26;;;;;;;56.30;11.63;;;;;;;;;;5030260;28;20203;-82
2021/10/10 11:14:19;;;;;;;14.07;10.27;;;;;;;;;;5033747;28;20988;-82
2021/10/10 11:17:04;;;;;;;21.53;10.03;;;;;;;;;;5029358;28;20267;-85
2021/10/10 11:19:50;;;;;;;14.90;10.17;;;;;;;;;;5014178;28;20669;-83
2021/10/10 11:22:36;;;;;;;16.10;10.40;;;;;;;;;;5014194;28;20235;-83
2021/10/10 11:25:29;;;;;;;14.40;9.83;;;;;;;;;;5016032;28;20740;-86
2021/10/10 11:28:14;;;;;;;13.17;9.70;;;;;;;;;;5013891;28;20197;-86
2021/10/10 11:31:06;;;;;;;11.03;9.07;;;;;;;;;;5013662;28;20320;-87
2021/10/10 11:33:55;;;;;;;13.97;8.90;;;;;;;;;;5013190;28;20200;-87
2021/10/10 11:36:42;;;;;;;13.27;9.93;;;;;;;;;;5013223;28;21130;-89
2021/10/10 11:39:29;;;;;;;15.10;9.83;;;;;;;;;;5013954;28;20212;-89
2021/10/10 11:42:14;;;;;;;11.83;9.63;;;;;;;;;;5013750;28;20239;-90
2021/10/10 11:44:59;;;;;;;15.20;9.70;;;;;;;;;;5013894;28;20665;-91
2021/10/10 11:47:49;;;;;;;16.83;9.93;;;;;;;;;;5013893;28;20192;-91
2021/10/10 11:50:34;;;;;;;11.87;9.37;;;;;;;;;;5014062;28;20223;-91
2021/10/10 11:53:33;;;;;;;13.73;10.00;;;;;;;;;;5013696;28;20196;-91
2021/10/10 11:56:20;;;;;;;15.17;9.37;;;;;;;;;;5014200;28;20203;-90
2021/10/10 11:59:11;;;;;;;14.60;9.77;;;;;;;;;;5013522;28;20208;-90
2021/10/10 12:01:57;;;;;;;13.83;9.63;;;;;;;;;;5013779;28;20192;-90
2021/10/10 12:04:42;;;;;;;14.70;9.50;;;;;;;;;;5013079;28;20344;-89
2021/10/10 12:07:28;;;;;;;11.23;9.50;;;;;;;;;;5012885;28;20528;-88
2021/10/10 12:10:14;;;;;;;12.97;9.13;;;;;;;;;;5032399;28;20187;-88
2021/10/10 12:13:04;;;;;;;13.93;9.37;;;;;;;;;;5032852;28;20550;-91
2021/10/10 12:15:58;;;;;;;11.67;9.37;;;;;;;;;;5032215;28;20191;-91
2021/10/10 12:18:43;;;;;;;12.90;9.37;;;;;;;;;;5033113;28;20206;-87
2021/10/10 12:21:30;;;;;;;12.20;9.53;;;;;;;;;;5032920;28;20183;-88
2021/10/10 12:24:17;;;;;;;12.40;9.33;;;;;;;;;;5032345;28;20242;-88
2021/10/10 12:27:03;;;;;;;11.03;8.57;;;;;;;;;;5032181;28;20195;-87
2021/10/10 12:29:49;;;;;;;13.87;9.23;;;;;;;;;;5032070;28;20295;-88
2021/10/10 12:32:35;;;;;;;12.07;8.63;;;;;;;;;;5032246;28;20663;-86
2021/10/10 12:35:20;;;;;;;11.03;8.20;;;;;;;;;;5032075;28;20309;-85
2021/10/10 12:38:05;;;;;;;12.43;9.23;;;;;;;;;;5032477;28;20231;-85
2021/10/10 12:40:51;;;;;;;10.93;7.87;;;;;;;;;;5032132;28;20200;-88
2021/10/10 12:43:39;;;;;;;11.67;8.90;;;;;;;;;;5032174;28;20187;-86
2021/10/10 12:46:26;;;;;;;9.83;7.67;;;;;;;;;;5032061;28;20187;-86
2021/10/10 12:49:11;;;;;;;11.87;8.20;;;;;;;;;;5033248;28;20555;-90
2021/10/10 12:51:56;;;;;;;9.23;7.77;;;;;;;;;;5032593;28;20182;-86
2021/10/10 12:54:43;;;;;;;11.03;8.07;;;;;;;;;;5031757;28;20183;-88
2021/10/10 12:57:29;;;;;;;11.03;8.23;;;;;;;;;;5032234;28;20257;-90
2021/10/10 13:00:17;;;;;;;16.00;8.17;;;;;;;;;;5032168;28;20335;-89
2021/10/10 13:03:04;;;;;;;9.93;8.10;;;;;;;;;;5032138;28;20264;-88
2021/10/10 13:05:48;;;;;;;10.10;7.13;;;;;;;;;;5032557;28;20184;-88
2021/10/10 13:08:44;;;;;;;10.00;7.17;;;;;;;;;;5025147;28;20287;-88
2021/10/10 13:11:29;;;;;;;9.23;7.10;;;;;;;;;;5012687;28;20184;-87
2021/10/10 13:14:16;;;;;;;9.73;6.60;;;;;;;;;;5012077;28;20684;-87
2021/10/10 13:17:01;;;;;;;9.00;8.07;;;;;;;;;;5011972;28;20212;-88
2021/10/10 13:19:47;;;;;;;8.67;7.17;;;;;;;;;;5012160;28;20431;-87
2021/10/10 13:22:34;;;;;;;10.30;6.83;;;;;;;;;;5012563;28;20276;-89
2021/10/10 13:25:19;;;;;;;10.60;7.40;;;;;;;;;;5012569;28;20196;-90
2021/10/10 13:28:05;;;;;;;11.57;7.80;;;;;;;;;;5012818;28;20676;-88
2021/10/10 13:30:50;;;;;;;9.40;7.72;;;;;;;;;;5012205;28;20758;-88
2021/10/10 13:33:36;;;;;;;11.32;7.85;;;;;;;;;;5012634;28;20294;-82
2021/10/10 13:36:22;;;;;;;14.07;7.82;;;;;;;;;;5012312;28;20189;-86
2021/10/10 13:39:07;;;;;;;12.80;8.48;;;;;;;;;;5012944;28;20208;-86
2021/10/10 13:41:52;;;;;;;12.68;8.20;;;;;;;;;;5012705;28;20429;-87
2021/10/10 13:44:37;;;;;;;9.23;7.30;;;;;;;;;;5012278;28;20208;-86
2021/10/10 13:47:22;;;;;;;9.15;6.90;;;;;;;;;;5015488;28;20745;-81
2021/10/10 13:50:09;;;;;;;10.90;7.60;;;;;;;;;;5016707;28;20220;-85
2021/10/10 13:52:55;;;;;;;12.73;7.25;;;;;;;;;;5016607;28;20184;-87
2021/10/10 13:55:40;;;;;;;10.82;6.90;;;;;;;;;;5017309;28;20611;-91
2021/10/10 13:58:25;;;;;;;8.35;7.25;;;;;;;;;;5017433;28;20188;-89
2021/10/10 14:01:11;;;;;;;12.40;7.30;;;;;;;;;;5017734;28;20279;-91
2021/10/10 14:03:56;;;;;;;8.25;6.93;;;;;;;;;;5018024;28;20231;-94
2021/10/10 14:06:41;;;;;;;7.78;6.97;;;;;;;;;;5016574;28;20188;-90
2021/10/10 14:09:27;;;;;;;10.15;6.95;;;;;;;;;;5018053;28;20231;-86
2021/10/10 14:12:12;;;;;;;11.23;6.85;;;;;;;;;;5017084;28;20524;-93
2021/10/10 14:14:59;;;;;;;10.23;6.55;;;;;;;;;;5016201;28;20188;-92
2021/10/10 14:17:45;;;;;;;10.02;7.07;;;;;;;;;;5016098;28;20272;-88
2021/10/10 14:20:30;;;;;;;11.05;7.65;;;;;;;;;;5014934;28;20207;-89
2021/10/10 14:23:16;;;;;;;10.85;7.18;;;;;;;;;;5017040;28;20232;-87
2021/10/10 14:26:02;;;;;;;8.57;7.78;;;;;;;;;;5015470;28;20195;-87
2021/10/10 14:28:51;;;;;;;8.52;7.20;;;;;;;;;;5015724;28;20708;-87
2021/10/10 14:31:36;;;;;;;7.78;6.97;;;;;;;;;;5015744;28;20615;-87
2021/10/10 14:34:21;;;;;;;9.60;7.35;;;;;;;;;;5015934;28;20188;-87
2021/10/10 14:37:06;;;;;;;8.80;7.90;;;;;;;;;;5016029;28;20247;-87
2021/10/10 14:39:55;;;;;;;11.32;8.20;;;;;;;;;;5014766;28;20690;-87
2021/10/10 14:42:44;;;;;;;9.68;7.82;;;;;;;;;;5015294;28;20192;-88
2021/10/10 14:45:32;;;;;;;14.00;9.25;;;;;;;;;;5015971;28;20255;-88
2021/10/10 14:48:18;;;;;;;14.60;7.88;;;;;;;;;;5017271;28;20316;-92
2021/10/10 14:51:03;;;;;;;11.57;9.00;;;;;;;;;;5016861;28;20232;-91
2021/10/10 14:53:50;;;;;;;10.15;8.45;;;;;;;;;;5016145;28;20185;-88
2021/10/10 14:56:36;;;;;;;10.55;8.38;;;;;;;;;;5016260;28;20207;-88
2021/10/10 14:59:22;;;;;;;12.32;8.20;;;;;;;;;;5015007;28;20270;-88
2021/10/10 15:02:08;;;;;;;11.50;9.30;;;;;;;;;;5015429;28;20254;-87
2021/10/10 15:04:53;;;;;;;10.75;8.93;;;;;;;;;;5015751;28;20661;-87
2021/10/10 15:07:39;;;;;;;15.02;8.93;;;;;;;;;;5014589;28;20189;-78
2021/10/10 15:10:24;;;;;;;12.27;8.10;;;;;;;;;;5014924;28;20196;-87
2021/10/10 15:13:10;;;;;;;13.63;8.07;;;;;;;;;;5015452;28;20201;-85
2021/10/10 15:15:57;;;;;;;10.07;7.30;;;;;;;;;;5014891;28;20549;-89
2021/10/10 15:18:42;;;;;;;11.10;7.15;;;;;;;;;;5014942;28;20188;-86
2021/10/10 15:21:29;;;;;;;11.32;7.05;;;;;;;;;;5015853;28;20216;-90
2021/10/10 15:24:14;;;;;;;7.53;6.68;;;;;;;;;;5014399;28;20195;-85
2021/10/10 15:26:59;;;;;;;9.65;7.80;;;;;;;;;;5014250;28;20192;-85
2021/10/10 15:29:44;;;;;;;10.60;6.90;;;;;;;;;;5013385;28;20191;-85
2021/10/10 15:32:30;;;;;;;9.55;6.55;;;;;;;;;;5013340;28;20320;-85
2021/10/10 15:35:15;;;;;;;10.23;7.35;;;;;;;;;;5013331;28;20195;-85
2021/10/10 15:38:00;;;;;;;9.00;7.05;;;;;;;;;;5013819;28;20187;-87
2021/10/10 15:40:46;;;;;;;11.93;8.40;;;;;;;;;;5014190;28;20212;-87
2021/10/10 15:43:31;;;;;;;10.02;6.93;;;;;;;;;;5013353;28;20665;-87
2021/10/10 15:46:17;;;;;;;11.05;7.05;;;;;;;;;;5013754;28;20232;-87
2021/10/10 15:49:03;;;;;;;10.32;7.22;;;;;;;;;;5013597;28;20188;-88
2021/10/10 15:51:49;;;;;;;7.90;7.10;;;;;;;;;;5014314;28;20348;-89
2021/10/10 15:54:34;;;;;;;10.73;7.18;;;;;;;;;;5013760;28;20187;-89
2021/10/10 15:57:19;;;;;;;12.38;6.90;;;;;;;;;;5014982;28;20388;-89
2021/10/10 16:00:05;;;;;;;8.93;6.40;;;;;;;;;;5013827;28;20276;-92
2021/10/10 16:02:50;;;;;;;7.67;6.23;;;;;;;;;;5016627;28;20660;-90
2021/10/10 16:05:37;;;;;;;12.43;7.07;;;;;;;;;;5014989;28;20264;-92
2021/10/10 16:08:22;;;;;;;9.17;6.80;;;;;;;;;;5016968;28;20276;-87
2021/10/10 16:11:07;;;;;;;14.07;6.93;;;;;;;;;;5014291;28;20703;-90
2021/10/10 16:13:52;;;;;;;13.60;7.20;;;;;;;;;;5013689;28;20743;-89
2021/10/10 16:16:37;;;;;;;8.80;7.00;;;;;;;;;;5013261;28;20730;-86
2021/10/10 16:19:23;;;;;;;8.07;6.73;;;;;;;;;;5012862;28;20193;-85